sensor_id;sensor_type;location;lat;lon;timestamp;pressure;altitude;pressure_sealevel;temperature;humidity
46007;BME280;31738;50.188;8.524;2023-04-06T00:01:26;99321.63;;;4.06;53.03
46007;BME280;31738;50.188;8.524;2023-04-06T00:03:51;99325.28;;;4.05;53.32
46007;BME280;31738;50.188;8.524;2023-04-06T00:06:17;99323.44;;;4.06;53.23
46007;BME280;31738;50.188;8.524;2023-04-06T00:08:42;99318.97;;;4.06;53.30
46007;BME280;31738;50.188;8.524;2023-04-06T00:11:08;99313.66;;;4.06;52.68
46007;BME280;31738;50.188;8.524;2023-04-06T00:13:34;99324.28;;;4.06;53.33
46007;BME280;31738;50.188;8.524;2023-04-06T00:16:00;99304.66;;;4.07;52.99
46007;BME280;31738;50.188;8.524;2023-04-06T00:18:25;99309.34;;;4.05;52.82
46007;BME280;31738;50.188;8.524;2023-04-06T00:20:51;99305.88;;;4.05;53.08
46007;BME280;31738;50.188;8.524;2023-04-06T00:23:17;99305.53;;;4.01;53.11
46007;BME280;31738;50.188;8.524;2023-04-06T00:25:43;99294.31;;;3.99;52.93
46007;BME280;31738;50.188;8.524;2023-04-06T00:28:08;99309.63;;;3.97;52.64
46007;BME280;31738;50.188;8.524;2023-04-06T00:30:34;99293.69;;;3.97;52.79
46007;BME280;31738;50.188;8.524;2023-04-06T00:32:59;99293.69;;;3.97;53.09
46007;BME280;31738;50.188;8.524;2023-04-06T00:35:26;99291.03;;;3.97;52.88
46007;BME280;31738;50.188;8.524;2023-04-06T00:37:51;99288.38;;;3.97;52.85
46007;BME280;31738;50.188;8.524;2023-04-06T00:40:17;99284.13;;;3.96;52.99
46007;BME280;31738;50.188;8.524;2023-04-06T00:42:44;99285.16;;;3.95;52.97
46007;BME280;31738;50.188;8.524;2023-04-06T00:45:10;99278.22;;;3.94;52.50
46007;BME280;31738;50.188;8.524;2023-04-06T00:47:36;99274.16;;;3.92;53.35
46007;BME280;31738;50.188;8.524;2023-04-06T00:50:01;99270.13;;;3.89;52.88
46007;BME280;31738;50.188;8.524;2023-04-06T00:52:27;99270.53;;;3.86;52.95
46007;BME280;31738;50.188;8.524;2023-04-06T00:54:53;99262.59;;;3.86;53.23
46007;BME280;31738;50.188;8.524;2023-04-06T00:57:20;99262.59;;;3.86;53.01
46007;BME280;31738;50.188;8.524;2023-04-06T00:59:51;99256.69;;;3.84;52.40
46007;BME280;31738;50.188;8.524;2023-04-06T01:02:18;99250.56;;;3.84;52.80
46007;BME280;31738;50.188;8.524;2023-04-06T01:04:47;99253.41;;;3.82;52.97
46007;BME280;31738;50.188;8.524;2023-04-06T01:07:23;99253.06;;;3.79;53.30
46007;BME280;31738;50.188;8.524;2023-04-06T01:10:03;99246.34;;;3.76;53.39
46007;BME280;31738;50.188;8.524;2023-04-06T01:12:31;99255.31;;;3.75;53.34
46007;BME280;31738;50.188;8.524;2023-04-06T01:14:59;99249.41;;;3.73;53.21
46007;BME280;31738;50.188;8.524;2023-04-06T01:17:26;99249.41;;;3.73;53.39
46007;BME280;31738;50.188;8.524;2023-04-06T01:19:59;99252.28;;;3.72;53.40
46007;BME280;31738;50.188;8.524;2023-04-06T01:22:29;99249.84;;;3.70;53.08
46007;BME280;31738;50.188;8.524;2023-04-06T01:24:58;99242.94;;;3.69;53.02
46007;BME280;31738;50.188;8.524;2023-04-06T01:27:30;99246.59;;;3.68;53.35
46007;BME280;31738;50.188;8.524;2023-04-06T01:30:15;99240.53;;;3.61;53.21
46007;BME280;31738;50.188;8.524;2023-04-06T01:32:49;99240.97;;;3.58;53.60
46007;BME280;31738;50.188;8.524;2023-04-06T01:35:21;99237.72;;;3.56;53.84
46007;BME280;31738;50.188;8.524;2023-04-06T01:37:57;99239.78;;;3.54;53.67
46007;BME280;31738;50.188;8.524;2023-04-06T01:40:28;99239.78;;;3.54;53.69
46007;BME280;31738;50.188;8.524;2023-04-06T01:42:55;99240.81;;;3.53;53.73
46007;BME280;31738;50.188;8.524;2023-04-06T01:45:29;99234.31;;;3.49;53.85
46007;BME280;31738;50.188;8.524;2023-04-06T01:48:01;99231.88;;;3.47;54.31
46007;BME280;31738;50.188;8.524;2023-04-06T01:50:27;99231.28;;;3.45;54.59
46007;BME280;31738;50.188;8.524;2023-04-06T01:52:53;99223.38;;;3.39;54.90
46007;BME280;31738;50.188;8.524;2023-04-06T01:55:20;99229.72;;;3.38;55.01
46007;BME280;31738;50.188;8.524;2023-04-06T01:58:12;99228.94;;;3.31;54.91
46007;BME280;31738;50.188;8.524;2023-04-06T02:00:38;99224.09;;;3.28;55.36
46007;BME280;31738;50.188;8.524;2023-04-06T02:03:03;99220.81;;;3.26;55.47
46007;BME280;31738;50.188;8.524;2023-04-06T02:05:31;99214.91;;;3.24;55.19
46007;BME280;31738;50.188;8.524;2023-04-06T02:07:59;99218.22;;;3.19;55.40
46007;BME280;31738;50.188;8.524;2023-04-06T02:10:32;99213.13;;;3.18;55.40
46007;BME280;31738;50.188;8.524;2023-04-06T02:13:01;99213.56;;;3.15;55.60
46007;BME280;31738;50.188;8.524;2023-04-06T02:15:27;99216.19;;;3.15;55.86
46007;BME280;31738;50.188;8.524;2023-04-06T02:17:53;99206.44;;;3.15;55.75
46007;BME280;31738;50.188;8.524;2023-04-06T02:20:18;99212.72;;;3.14;55.69
46007;BME280;31738;50.188;8.524;2023-04-06T02:22:44;99212.72;;;3.14;55.91
46007;BME280;31738;50.188;8.524;2023-04-06T02:25:09;99207.66;;;3.13;55.72
46007;BME280;31738;50.188;8.524;2023-04-06T02:27:35;99205.41;;;3.10;56.07
46007;BME280;31738;50.188;8.524;2023-04-06T02:30:02;99196.91;;;3.08;55.94
46007;BME280;31738;50.188;8.524;2023-04-06T02:32:27;99202.41;;;3.06;55.96
46007;BME280;31738;50.188;8.524;2023-04-06T02:34:53;99197.31;;;3.05;55.74
46007;BME280;31738;50.188;8.524;2023-04-06T02:37:20;99198.34;;;3.04;55.72
46007;BME280;31738;50.188;8.524;2023-04-06T02:39:47;99199.38;;;3.03;55.65
46007;BME280;31738;50.188;8.524;2023-04-06T02:42:12;99196.09;;;3.01;55.91
46007;BME280;31738;50.188;8.524;2023-04-06T02:44:38;99193.47;;;3.01;55.72
46007;BME280;31738;50.188;8.524;2023-04-06T02:47:04;99194.72;;;2.98;55.77
46007;BME280;31738;50.188;8.524;2023-04-06T02:49:30;99189.63;;;2.97;56.20
46007;BME280;31738;50.188;8.524;2023-04-06T02:51:57;99192.50;;;2.95;56.01
46007;BME280;31738;50.188;8.524;2023-04-06T02:54:30;99191.28;;;2.91;56.06
46007;BME280;31738;50.188;8.524;2023-04-06T02:56:56;99191.47;;;2.90;56.06
46007;BME280;31738;50.188;8.524;2023-04-06T02:59:26;99191.13;;;2.86;56.06
46007;BME280;31738;50.188;8.524;2023-04-06T03:02:01;99193.38;;;2.83;55.95
46007;BME280;31738;50.188;8.524;2023-04-06T03:04:26;99194.19;;;2.83;56.27
46007;BME280;31738;50.188;8.524;2023-04-06T03:06:54;99188.69;;;2.85;56.33
46007;BME280;31738;50.188;8.524;2023-04-06T03:09:31;99196.03;;;2.83;56.14
46007;BME280;31738;50.188;8.524;2023-04-06T03:11:56;99191.75;;;2.82;56.47
46007;BME280;31738;50.188;8.524;2023-04-06T03:14:23;99185.63;;;2.81;56.08
46007;BME280;31738;50.188;8.524;2023-04-06T03:16:49;99188.06;;;2.83;56.35
46007;BME280;31738;50.188;8.524;2023-04-06T03:19:18;99184.81;;;2.81;56.25
46007;BME280;31738;50.188;8.524;2023-04-06T03:21:44;99185.25;;;2.78;56.17
46007;BME280;31738;50.188;8.524;2023-04-06T03:24:11;99187.88;;;2.78;56.33
46007;BME280;31738;50.188;8.524;2023-04-06T03:26:38;99189.97;;;2.76;56.22
46007;BME280;31738;50.188;8.524;2023-04-06T03:29:06;99193.03;;;2.73;56.21
46007;BME280;31738;50.188;8.524;2023-04-06T03:31:31;99190.00;;;2.69;56.30
46007;BME280;31738;50.188;8.524;2023-04-06T03:34:32;99182.06;;;2.63;56.20
46007;BME280;31738;50.188;8.524;2023-04-06T03:36:58;99181.25;;;2.62;56.71
46007;BME280;31738;50.188;8.524;2023-04-06T03:39:23;99184.94;;;2.61;56.21
46007;BME280;31738;50.188;8.524;2023-04-06T03:41:49;99183.09;;;2.62;56.67
46007;BME280;31738;50.188;8.524;2023-04-06T03:44:35;99186.16;;;2.59;56.50
46007;BME280;31738;50.188;8.524;2023-04-06T03:47:00;99191.69;;;2.57;56.65
46007;BME280;31738;50.188;8.524;2023-04-06T03:49:27;99190.66;;;2.58;56.36
46007;BME280;31738;50.188;8.524;2023-04-06T03:51:53;99190.84;;;2.57;56.30
46007;BME280;31738;50.188;8.524;2023-04-06T03:54:18;99190.25;;;2.55;56.33
46007;BME280;31738;50.188;8.524;2023-04-06T03:56:44;99189.66;;;2.53;56.35
46007;BME280;31738;50.188;8.524;2023-04-06T03:59:10;99187.03;;;2.53;56.42
46007;BME280;31738;50.188;8.524;2023-04-06T04:01:35;99185.38;;;2.52;56.24
46007;BME280;31738;50.188;8.524;2023-04-06T04:04:01;99189.06;;;2.51;56.48
46007;BME280;31738;50.188;8.524;2023-04-06T04:06:27;99189.47;;;2.48;56.42
46007;BME280;31738;50.188;8.524;2023-04-06T04:08:52;99194.78;;;2.48;56.91
46007;BME280;31738;50.188;8.524;2023-04-06T04:11:18;99193.94;;;2.47;56.62
46007;BME280;31738;50.188;8.524;2023-04-06T04:13:48;99196.81;;;2.46;57.21
46007;BME280;31738;50.188;8.524;2023-04-06T04:16:13;99200.47;;;2.45;56.84
46007;BME280;31738;50.188;8.524;2023-04-06T04:18:40;99193.56;;;2.44;57.09
46007;BME280;31738;50.188;8.524;2023-04-06T04:21:08;99195.19;;;2.45;57.16
46007;BME280;31738;50.188;8.524;2023-04-06T04:23:34;99199.66;;;2.44;57.25
46007;BME280;31738;50.188;8.524;2023-04-06T04:26:00;99191.09;;;2.42;57.13
46007;BME280;31738;50.188;8.524;2023-04-06T04:28:25;99205.38;;;2.41;57.10
46007;BME280;31738;50.188;8.524;2023-04-06T04:30:53;99198.47;;;2.40;57.11
46007;BME280;31738;50.188;8.524;2023-04-06T04:33:19;99201.13;;;2.40;57.12
46007;BME280;31738;50.188;8.524;2023-04-06T04:35:44;99209.84;;;2.41;57.58
46007;BME280;31738;50.188;8.524;2023-04-06T04:38:13;99200.50;;;2.38;57.49
46007;BME280;31738;50.188;8.524;2023-04-06T04:40:41;99201.31;;;2.39;57.35
46007;BME280;31738;50.188;8.524;2023-04-06T04:43:09;99195.22;;;2.38;57.33
46007;BME280;31738;50.188;8.524;2023-04-06T04:45:35;99195.22;;;2.38;57.12
46007;BME280;31738;50.188;8.524;2023-04-06T04:48:11;99203.34;;;2.37;57.21
46007;BME280;31738;50.188;8.524;2023-04-06T04:50:51;99202.94;;;2.40;57.21
46007;BME280;31738;50.188;8.524;2023-04-06T04:53:19;99202.13;;;2.39;57.09
46007;BME280;31738;50.188;8.524;2023-04-06T04:55:45;99201.91;;;2.41;57.42
46007;BME280;31738;50.188;8.524;2023-04-06T04:58:12;99206.19;;;2.42;57.43
46007;BME280;31738;50.188;8.524;2023-04-06T05:04:42;99209.50;;;2.31;57.59
46007;BME280;31738;50.188;8.524;2023-04-06T05:07:12;99200.91;;;2.35;57.52
46007;BME280;31738;50.188;8.524;2023-04-06T05:09:49;99208.22;;;2.40;57.57
46007;BME280;31738;50.188;8.524;2023-04-06T05:12:15;99207.81;;;2.43;57.64
46007;BME280;31738;50.188;8.524;2023-04-06T05:14:51;99202.09;;;2.46;57.82
46007;BME280;31738;50.188;8.524;2023-04-06T05:23:59;99203.97;;;2.45;57.90
46007;BME280;31738;50.188;8.524;2023-04-06T05:26:28;99207.38;;;2.52;58.15
46007;BME280;31738;50.188;8.524;2023-04-06T05:28:59;99207.78;;;2.56;58.31
46007;BME280;31738;50.188;8.524;2023-04-06T05:31:28;99201.25;;;2.58;57.73
46007;BME280;31738;50.188;8.524;2023-04-06T05:33:55;99197.97;;;2.63;58.12
46007;BME280;31738;50.188;8.524;2023-04-06T05:36:30;99205.69;;;2.64;58.11
46007;BME280;31738;50.188;8.524;2023-04-06T05:38:57;99200.56;;;2.69;58.58
46007;BME280;31738;50.188;8.524;2023-04-06T05:41:48;99199.53;;;2.70;58.69
46007;BME280;31738;50.188;8.524;2023-04-06T05:44:16;99197.91;;;2.76;58.39
46007;BME280;31738;50.188;8.524;2023-04-06T05:46:46;99194.41;;;2.82;58.88
46007;BME280;31738;50.188;8.524;2023-04-06T05:49:15;99200.69;;;2.87;58.63
46007;BME280;31738;50.188;8.524;2023-04-06T05:51:40;99206.75;;;2.94;58.69
46007;BME280;31738;50.188;8.524;2023-04-06T05:54:06;99198.97;;;2.99;59.09
46007;BME280;31738;50.188;8.524;2023-04-06T05:56:32;99207.50;;;3.08;58.76
46007;BME280;31738;50.188;8.524;2023-04-06T05:58:59;99202.53;;;3.18;58.52
46007;BME280;31738;50.188;8.524;2023-04-06T06:01:28;99204.09;;;3.25;58.78
46007;BME280;31738;50.188;8.524;2023-04-06T06:03:54;99203.25;;;3.31;58.74
46007;BME280;31738;50.188;8.524;2023-04-06T06:06:21;99206.28;;;3.35;58.57
46007;BME280;31738;50.188;8.524;2023-04-06T06:09:04;99202.75;;;3.41;58.64
46007;BME280;31738;50.188;8.524;2023-04-06T06:11:34;99205.59;;;3.46;58.51
46007;BME280;31738;50.188;8.524;2023-04-06T06:14:02;99204.72;;;3.52;58.30
46007;BME280;31738;50.188;8.524;2023-04-06T06:16:28;99204.47;;;3.60;58.08
46007;BME280;31738;50.188;8.524;2023-04-06T06:18:54;99208.06;;;3.66;57.89
46007;BME280;31738;50.188;8.524;2023-04-06T06:21:20;99197.97;;;3.74;58.94
46007;BME280;31738;50.188;8.524;2023-04-06T06:23:45;99199.34;;;3.83;59.30
46007;BME280;31738;50.188;8.524;2023-04-06T06:26:15;99202.13;;;3.88;59.78
46007;BME280;31738;50.188;8.524;2023-04-06T06:28:41;99199.66;;;3.93;59.90
46007;BME280;31738;50.188;8.524;2023-04-06T06:31:09;99193.09;;;3.96;60.24
46007;BME280;31738;50.188;8.524;2023-04-06T06:33:35;99198.56;;;4.01;60.33
46007;BME280;31738;50.188;8.524;2023-04-06T06:36:01;99195.22;;;4.05;60.64
46007;BME280;31738;50.188;8.524;2023-04-06T06:38:29;99194.94;;;4.13;59.88
46007;BME280;31738;50.188;8.524;2023-04-06T06:40:54;99196.72;;;4.19;59.59
46007;BME280;31738;50.188;8.524;2023-04-06T06:43:22;99204.41;;;4.27;58.65
46007;BME280;31738;50.188;8.524;2023-04-06T06:45:54;99202.47;;;4.34;58.10
46007;BME280;31738;50.188;8.524;2023-04-06T06:48:19;99202.78;;;4.44;57.81
46007;BME280;31738;50.188;8.524;2023-04-06T06:50:47;99206.75;;;4.53;57.35
46007;BME280;31738;50.188;8.524;2023-04-06T06:53:13;99208.50;;;4.59;56.89
46007;BME280;31738;50.188;8.524;2023-04-06T06:55:38;99209.22;;;4.66;56.49
46007;BME280;31738;50.188;8.524;2023-04-06T06:58:04;99208.34;;;4.72;56.24
46007;BME280;31738;50.188;8.524;2023-04-06T07:00:29;99206.66;;;4.78;56.10
46007;BME280;31738;50.188;8.524;2023-04-06T07:02:55;99210.38;;;4.88;55.64
46007;BME280;31738;50.188;8.524;2023-04-06T07:05:21;99212.97;;;4.95;54.86
46007;BME280;31738;50.188;8.524;2023-04-06T07:07:47;99219.22;;;5.00;55.61
46007;BME280;31738;50.188;8.524;2023-04-06T07:10:12;99213.59;;;5.08;55.01
46007;BME280;31738;50.188;8.524;2023-04-06T07:12:38;99222.25;;;5.15;54.85
46007;BME280;31738;50.188;8.524;2023-04-06T07:15:04;99218.47;;;5.23;54.31
46007;BME280;31738;50.188;8.524;2023-04-06T07:17:30;99224.06;;;5.33;54.81
46007;BME280;31738;50.188;8.524;2023-04-06T07:19:55;99220.50;;;5.39;54.55
46007;BME280;31738;50.188;8.524;2023-04-06T07:22:21;99224.66;;;5.47;54.82
46007;BME280;31738;50.188;8.524;2023-04-06T07:24:46;99224.81;;;5.52;54.32
46007;BME280;31738;50.188;8.524;2023-04-06T07:27:13;99223.88;;;5.58;54.30
46007;BME280;31738;50.188;8.524;2023-04-06T07:29:39;99222.97;;;5.64;54.72
46007;BME280;31738;50.188;8.524;2023-04-06T07:32:04;99228.97;;;5.71;54.05
46007;BME280;31738;50.188;8.524;2023-04-06T07:34:31;99235.03;;;5.78;53.94
46007;BME280;31738;50.188;8.524;2023-04-06T07:36:57;99231.25;;;5.85;54.54
46007;BME280;31738;50.188;8.524;2023-04-06T07:39:23;99230.66;;;5.95;53.95
46007;BME280;31738;50.188;8.524;2023-04-06T07:41:48;99237.03;;;6.05;53.69
46007;BME280;31738;50.188;8.524;2023-04-06T07:44:14;99233.88;;;6.20;53.81
46007;BME280;31738;50.188;8.524;2023-04-06T07:46:39;99230.41;;;6.31;53.13
46007;BME280;31738;50.188;8.524;2023-04-06T07:49:05;99237.81;;;6.40;53.31
46007;BME280;31738;50.188;8.524;2023-04-06T07:51:35;99237.31;;;6.55;53.20
46007;BME280;31738;50.188;8.524;2023-04-06T07:54:01;99238.69;;;6.69;53.15
46007;BME280;31738;50.188;8.524;2023-04-06T07:56:27;99235.03;;;6.86;53.27
46007;BME280;31738;50.188;8.524;2023-04-06T07:58:52;99238.00;;;7.02;52.79
46007;BME280;31738;50.188;8.524;2023-04-06T08:01:20;99243.38;;;7.18;52.76
46007;BME280;31738;50.188;8.524;2023-04-06T08:03:46;99244.72;;;7.32;52.66
46007;BME280;31738;50.188;8.524;2023-04-06T08:06:11;99249.72;;;7.45;52.15
46007;BME280;31738;50.188;8.524;2023-04-06T08:08:40;99246.19;;;7.56;51.95
46007;BME280;31738;50.188;8.524;2023-04-06T08:11:06;99248.97;;;7.61;51.13
46007;BME280;31738;50.188;8.524;2023-04-06T08:13:31;99250.16;;;7.70;52.02
46007;BME280;31738;50.188;8.524;2023-04-06T08:15:58;99252.50;;;7.83;51.75
46007;BME280;31738;50.188;8.524;2023-04-06T08:18:24;99251.38;;;7.96;51.32
46007;BME280;31738;50.188;8.524;2023-04-06T08:20:49;99256.56;;;8.02;50.65
46007;BME280;31738;50.188;8.524;2023-04-06T08:23:15;99257.53;;;8.13;50.89
46007;BME280;31738;50.188;8.524;2023-04-06T08:25:41;99261.66;;;8.20;50.51
46007;BME280;31738;50.188;8.524;2023-04-06T08:28:07;99268.72;;;8.26;50.36
46007;BME280;31738;50.188;8.524;2023-04-06T08:30:34;99269.03;;;8.30;49.79
46007;BME280;31738;50.188;8.524;2023-04-06T08:32:59;99273.06;;;8.32;50.10
46007;BME280;31738;50.188;8.524;2023-04-06T08:35:26;99281.34;;;8.47;49.99
46007;BME280;31738;50.188;8.524;2023-04-06T08:37:51;99285.81;;;8.63;49.75
46007;BME280;31738;50.188;8.524;2023-04-06T08:40:16;99276.94;;;8.80;49.35
46007;BME280;31738;50.188;8.524;2023-04-06T08:42:45;99270.97;;;8.94;48.85
46007;BME280;31738;50.188;8.524;2023-04-06T08:45:13;99282.34;;;9.06;49.07
46007;BME280;31738;50.188;8.524;2023-04-06T08:47:40;99280.84;;;9.15;48.68
46007;BME280;31738;50.188;8.524;2023-04-06T08:50:07;99289.34;;;9.34;48.66
46007;BME280;31738;50.188;8.524;2023-04-06T08:52:33;99289.66;;;9.37;49.28
46007;BME280;31738;50.188;8.524;2023-04-06T08:54:59;99285.88;;;9.60;49.58
46007;BME280;31738;50.188;8.524;2023-04-06T08:57:25;99299.44;;;9.75;48.27
46007;BME280;31738;50.188;8.524;2023-04-06T08:59:51;99293.09;;;9.86;48.14
46007;BME280;31738;50.188;8.524;2023-04-06T09:02:18;99298.53;;;9.96;48.00
46007;BME280;31738;50.188;8.524;2023-04-06T09:04:48;99302.44;;;10.10;47.78
46007;BME280;31738;50.188;8.524;2023-04-06T09:07:15;99302.00;;;10.23;47.23
46007;BME280;31738;50.188;8.524;2023-04-06T09:09:41;99308.53;;;10.37;46.98
46007;BME280;31738;50.188;8.524;2023-04-06T09:12:30;99315.88;;;10.52;46.54
46007;BME280;31738;50.188;8.524;2023-04-06T09:14:58;99311.78;;;10.39;45.64
46007;BME280;31738;50.188;8.524;2023-04-06T09:17:32;99310.28;;;10.58;46.50
46007;BME280;31738;50.188;8.524;2023-04-06T09:20:02;99323.25;;;10.76;45.41
46007;BME280;31738;50.188;8.524;2023-04-06T09:22:36;99320.91;;;10.85;46.01
46007;BME280;31738;50.188;8.524;2023-04-06T09:25:02;99316.91;;;10.92;45.38
46007;BME280;31738;50.188;8.524;2023-04-06T09:27:35;99323.38;;;10.96;45.59
46007;BME280;31738;50.188;8.524;2023-04-06T09:30:11;99328.81;;;11.06;44.74
46007;BME280;31738;50.188;8.524;2023-04-06T09:32:49;99321.84;;;11.15;44.67
46007;BME280;31738;50.188;8.524;2023-04-06T09:35:15;99321.91;;;11.30;45.24
46007;BME280;31738;50.188;8.524;2023-04-06T09:37:42;99331.13;;;11.54;44.60
46007;BME280;31738;50.188;8.524;2023-04-06T09:40:08;99317.78;;;11.69;43.91
46007;BME280;31738;50.188;8.524;2023-04-06T09:42:34;99317.78;;;11.79;44.27
46007;BME280;31738;50.188;8.524;2023-04-06T09:45:02;99317.53;;;11.96;44.20
46007;BME280;31738;50.188;8.524;2023-04-06T09:47:28;99330.97;;;12.01;43.92
46007;BME280;31738;50.188;8.524;2023-04-06T09:49:56;99325.31;;;12.02;43.88
46007;BME280;31738;50.188;8.524;2023-04-06T09:52:27;99325.59;;;12.21;43.92
46007;BME280;31738;50.188;8.524;2023-04-06T09:54:59;99333.41;;;12.28;43.00
46007;BME280;31738;50.188;8.524;2023-04-06T09:57:45;99326.13;;;12.38;43.14
46007;BME280;31738;50.188;8.524;2023-04-06T10:00:17;99330.69;;;12.53;43.23
46007;BME280;31738;50.188;8.524;2023-04-06T10:05:33;99332.22;;;13.09;42.88
46007;BME280;31738;50.188;8.524;2023-04-06T10:08:05;99338.94;;;13.16;42.38
46007;BME280;31738;50.188;8.524;2023-04-06T10:10:32;99343.44;;;13.31;42.88
46007;BME280;31738;50.188;8.524;2023-04-06T10:12:57;99339.09;;;13.40;42.51
46007;BME280;31738;50.188;8.524;2023-04-06T10:15:23;99337.19;;;13.45;42.02
46007;BME280;31738;50.188;8.524;2023-04-06T10:17:50;99335.50;;;13.59;42.38
46007;BME280;31738;50.188;8.524;2023-04-06T10:20:22;99335.63;;;13.78;42.23
46007;BME280;31738;50.188;8.524;2023-04-06T10:23:13;99338.50;;;13.97;41.89
46007;BME280;31738;50.188;8.524;2023-04-06T10:25:56;99346.78;;;14.10;41.17
46007;BME280;31738;50.188;8.524;2023-04-06T10:28:22;99345.69;;;14.11;40.32
46007;BME280;31738;50.188;8.524;2023-04-06T10:30:48;99348.16;;;14.03;40.65
46007;BME280;31738;50.188;8.524;2023-04-06T10:33:19;99346.81;;;14.05;40.21
46007;BME280;31738;50.188;8.524;2023-04-06T10:35:45;99349.97;;;14.12;40.83
46007;BME280;31738;50.188;8.524;2023-04-06T10:38:10;99347.75;;;14.24;40.03
46007;BME280;31738;50.188;8.524;2023-04-06T10:40:40;99354.22;;;14.28;40.28
46007;BME280;31738;50.188;8.524;2023-04-06T10:43:10;99347.38;;;14.41;40.48
46007;BME280;31738;50.188;8.524;2023-04-06T10:45:37;99355.63;;;14.54;39.99
46007;BME280;31738;50.188;8.524;2023-04-06T10:48:15;99347.94;;;14.66;39.96
46007;BME280;31738;50.188;8.524;2023-04-06T10:50:46;99348.97;;;14.70;39.80
46007;BME280;31738;50.188;8.524;2023-04-06T10:53:21;99344.47;;;14.89;39.89
46007;BME280;31738;50.188;8.524;2023-04-06T10:55:47;99347.13;;;14.94;40.23
46007;BME280;31738;50.188;8.524;2023-04-06T10:58:14;99349.66;;;15.09;39.95
46007;BME280;31738;50.188;8.524;2023-04-06T11:00:47;99344.06;;;15.24;39.10
46007;BME280;31738;50.188;8.524;2023-04-06T11:03:13;99352.72;;;15.26;39.11
46007;BME280;31738;50.188;8.524;2023-04-06T11:05:49;99339.03;;;15.42;38.91
46007;BME280;31738;50.188;8.524;2023-04-06T11:08:31;99335.97;;;15.67;38.90
46007;BME280;31738;50.188;8.524;2023-04-06T11:11:04;99339.66;;;15.76;37.59
46007;BME280;31738;50.188;8.524;2023-04-06T11:13:48;99338.63;;;15.72;38.85
46007;BME280;31738;50.188;8.524;2023-04-06T11:19:00;99345.09;;;15.52;39.34
46007;BME280;31738;50.188;8.524;2023-04-06T11:21:37;99344.28;;;15.52;39.03
46007;BME280;31738;50.188;8.524;2023-04-06T11:24:18;99341.38;;;15.48;39.39
46007;BME280;31738;50.188;8.524;2023-04-06T11:26:45;99335.69;;;15.50;39.99
46007;BME280;31738;50.188;8.524;2023-04-06T11:29:12;99329.91;;;15.56;39.88
46007;BME280;31738;50.188;8.524;2023-04-06T11:31:49;99335.31;;;15.56;38.71
46007;BME280;31738;50.188;8.524;2023-04-06T11:34:17;99342.34;;;15.33;38.71
46007;BME280;31738;50.188;8.524;2023-04-06T11:36:45;99331.09;;;15.26;39.00
46007;BME280;31738;50.188;8.524;2023-04-06T11:39:13;99334.72;;;15.41;39.32
46007;BME280;31738;50.188;8.524;2023-04-06T11:41:47;99334.59;;;15.51;38.46
46007;BME280;31738;50.188;8.524;2023-04-06T11:44:12;99324.78;;;15.55;39.28
46007;BME280;31738;50.188;8.524;2023-04-06T11:46:38;99324.50;;;15.75;39.78
46007;BME280;31738;50.188;8.524;2023-04-06T11:49:03;99332.78;;;16.02;38.33
46007;BME280;31738;50.188;8.524;2023-04-06T11:51:29;99326.50;;;15.88;37.44
46007;BME280;31738;50.188;8.524;2023-04-06T11:53:55;99324.66;;;15.65;38.42
46007;BME280;31738;50.188;8.524;2023-04-06T11:56:30;99329.19;;;15.69;38.62
46007;BME280;31738;50.188;8.524;2023-04-06T11:58:57;99320.03;;;15.84;38.51
46007;BME280;31738;50.188;8.524;2023-04-06T12:01:24;99319.84;;;15.99;38.45
46007;BME280;31738;50.188;8.524;2023-04-06T12:03:50;99312.16;;;16.06;38.63
46007;BME280;31738;50.188;8.524;2023-04-06T12:06:16;99313.59;;;16.17;38.28
46007;BME280;31738;50.188;8.524;2023-04-06T12:08:42;99320.06;;;16.34;37.62
46007;BME280;31738;50.188;8.524;2023-04-06T12:11:08;99314.72;;;16.48;37.88
46007;BME280;31738;50.188;8.524;2023-04-06T12:13:33;99310.03;;;16.67;37.88
46007;BME280;31738;50.188;8.524;2023-04-06T12:15:59;99311.56;;;16.73;37.30
46007;BME280;31738;50.188;8.524;2023-04-06T12:18:24;99316.28;;;16.81;36.94
46007;BME280;31738;50.188;8.524;2023-04-06T12:20:51;99314.78;;;16.75;37.10
46007;BME280;31738;50.188;8.524;2023-04-06T12:23:16;99324.41;;;16.67;36.97
46007;BME280;31738;50.188;8.524;2023-04-06T12:25:42;99310.25;;;16.57;37.31
46007;BME280;31738;50.188;8.524;2023-04-06T12:28:08;99320.94;;;16.48;37.39
46007;BME280;31738;50.188;8.524;2023-04-06T12:30:34;99314.16;;;16.51;37.58
46007;BME280;31738;50.188;8.524;2023-04-06T12:33:00;99316.47;;;16.39;37.46
46007;BME280;31738;50.188;8.524;2023-04-06T12:35:26;99312.34;;;16.28;38.17
46007;BME280;31738;50.188;8.524;2023-04-06T12:37:52;99313.59;;;16.17;37.79
46007;BME280;31738;50.188;8.524;2023-04-06T12:40:17;99311.38;;;16.19;37.53
46007;BME280;31738;50.188;8.524;2023-04-06T12:42:43;99315.06;;;16.09;37.37
46007;BME280;31738;50.188;8.524;2023-04-06T12:45:09;99315.84;;;16.10;37.13
46007;BME280;31738;50.188;8.524;2023-04-06T12:47:34;99316.97;;;16.09;36.99
46007;BME280;31738;50.188;8.524;2023-04-06T12:50:02;99302.91;;;16.07;37.45
46007;BME280;31738;50.188;8.524;2023-04-06T12:52:27;99312.72;;;16.03;37.10
46007;BME280;31738;50.188;8.524;2023-04-06T12:54:56;99308.50;;;15.97;37.11
46007;BME280;31738;50.188;8.524;2023-04-06T12:57:21;99315.09;;;15.91;37.24
46007;BME280;31738;50.188;8.524;2023-04-06T12:59:47;99304.25;;;15.91;37.39
46007;BME280;31738;50.188;8.524;2023-04-06T13:02:12;99309.16;;;15.89;37.10
46007;BME280;31738;50.188;8.524;2023-04-06T13:04:38;99298.84;;;15.91;36.74
46007;BME280;31738;50.188;8.524;2023-04-06T13:07:03;99294.16;;;15.96;37.61
46007;BME280;31738;50.188;8.524;2023-04-06T13:09:29;99299.50;;;16.01;37.52
46007;BME280;31738;50.188;8.524;2023-04-06T13:11:55;99295.91;;;16.06;36.98
46007;BME280;31738;50.188;8.524;2023-04-06T13:14:20;99294.91;;;16.02;35.91
46007;BME280;31738;50.188;8.524;2023-04-06T13:16:46;99293.09;;;15.97;36.56
46007;BME280;31738;50.188;8.524;2023-04-06T13:19:11;99298.84;;;15.91;36.22
46007;BME280;31738;50.188;8.524;2023-04-06T13:21:38;99295.78;;;15.79;36.09
46007;BME280;31738;50.188;8.524;2023-04-06T13:24:04;99294.75;;;15.75;36.12
46007;BME280;31738;50.188;8.524;2023-04-06T13:26:31;99288.09;;;15.86;36.95
46007;BME280;31738;50.188;8.524;2023-04-06T13:28:56;99291.91;;;16.03;36.92